sensor_id;sensor_type;location;lat;lon;timestamp;P1;durP1;ratioP1;P2;durP2;ratioP2
21438;SDS011;10880;50.302;18.736;2023-08-06T06:00:10;0.80;;;0.80;;
21438;SDS011;10880;50.302;18.736;2023-08-06T06:02:39;0.90;;;0.90;;
21438;SDS011;10880;50.302;18.736;2023-08-06T06:05:06;0.80;;;0.80;;
21438;SDS011;10880;50.302;18.736;2023-08-06T06:07:33;0.80;;;0.80;;
21438;SDS011;10880;50.302;18.736;2023-08-06T06:09:59;0.83;;;0.83;;
21438;SDS011;10880;50.302;18.736;2023-08-06T06:12:26;0.87;;;0.87;;
21438;SDS011;10880;50.302;18.736;2023-08-06T06:14:53;0.80;;;0.80;;
21438;SDS011;10880;50.302;18.736;2023-08-06T06:17:21;0.80;;;0.80;;
21438;SDS011;10880;50.302;18.736;2023-08-06T06:19:48;0.70;;;0.70;;
21438;SDS011;10880;50.302;18.736;2023-08-06T06:22:15;0.70;;;0.70;;
21438;SDS011;10880;50.302;18.736;2023-08-06T06:24:41;0.70;;;0.70;;
21438;SDS011;10880;50.302;18.736;2023-08-06T06:27:08;0.80;;;0.80;;
21438;SDS011;10880;50.302;18.736;2023-08-06T06:29:35;0.77;;;0.77;;
21438;SDS011;10880;50.302;18.736;2023-08-06T06:32:01;0.80;;;0.80;;
21438;SDS011;10880;50.302;18.736;2023-08-06T06:34:28;0.80;;;0.80;;
21438;SDS011;10880;50.302;18.736;2023-08-06T06:36:54;0.80;;;0.80;;
21438;SDS011;10880;50.302;18.736;2023-08-06T06:39:21;0.80;;;0.80;;
21438;SDS011;10880;50.302;18.736;2023-08-06T06:41:48;0.80;;;0.80;;
21438;SDS011;10880;50.302;18.736;2023-08-06T06:44:23;0.80;;;0.80;;
21438;SDS011;10880;50.302;18.736;2023-08-06T06:46:50;0.80;;;0.80;;
21438;SDS011;10880;50.302;18.736;2023-08-06T06:49:17;0.70;;;0.70;;
21438;SDS011;10880;50.302;18.736;2023-08-06T06:51:44;0.80;;;0.70;;
21438;SDS011;10880;50.302;18.736;2023-08-06T06:54:10;0.73;;;0.73;;
21438;SDS011;10880;50.302;18.736;2023-08-06T06:56:37;0.80;;;0.80;;
21438;SDS011;10880;50.302;18.736;2023-08-06T06:59:04;0.83;;;0.83;;
21438;SDS011;10880;50.302;18.736;2023-08-06T07:01:30;0.80;;;0.80;;
21438;SDS011;10880;50.302;18.736;2023-08-06T07:03:57;0.80;;;0.80;;
21438;SDS011;10880;50.302;18.736;2023-08-06T07:06:31;0.80;;;0.80;;
21438;SDS011;10880;50.302;18.736;2023-08-06T07:08:57;0.80;;;0.80;;
21438;SDS011;10880;50.302;18.736;2023-08-06T07:11:24;0.80;;;0.80;;
21438;SDS011;10880;50.302;18.736;2023-08-06T07:13:55;0.70;;;0.70;;
21438;SDS011;10880;50.302;18.736;2023-08-06T07:16:24;0.80;;;0.80;;
21438;SDS011;10880;50.302;18.736;2023-08-06T07:18:51;0.80;;;0.80;;
21438;SDS011;10880;50.302;18.736;2023-08-06T07:21:18;0.80;;;0.80;;
21438;SDS011;10880;50.302;18.736;2023-08-06T07:23:45;0.83;;;0.83;;
21438;SDS011;10880;50.302;18.736;2023-08-06T07:26:12;0.80;;;0.80;;
21438;SDS011;10880;50.302;18.736;2023-08-06T07:28:39;0.80;;;0.80;;
21438;SDS011;10880;50.302;18.736;2023-08-06T07:31:06;0.80;;;0.80;;
21438;SDS011;10880;50.302;18.736;2023-08-06T07:33:32;0.70;;;0.70;;
21438;SDS011;10880;50.302;18.736;2023-08-06T07:35:59;0.80;;;0.80;;
21438;SDS011;10880;50.302;18.736;2023-08-06T07:38:26;0.80;;;0.80;;
21438;SDS011;10880;50.302;18.736;2023-08-06T07:40:54;0.70;;;0.70;;
21438;SDS011;10880;50.302;18.736;2023-08-06T07:43:21;0.80;;;0.80;;
21438;SDS011;10880;50.302;18.736;2023-08-06T07:45:48;0.80;;;0.80;;
21438;SDS011;10880;50.302;18.736;2023-08-06T07:48:14;0.70;;;0.70;;
21438;SDS011;10880;50.302;18.736;2023-08-06T07:50:41;0.70;;;0.70;;
21438;SDS011;10880;50.302;18.736;2023-08-06T07:53:08;0.80;;;0.80;;
21438;SDS011;10880;50.302;18.736;2023-08-06T07:55:35;0.80;;;0.80;;
21438;SDS011;10880;50.302;18.736;2023-08-06T07:58:02;0.90;;;0.90;;
21438;SDS011;10880;50.302;18.736;2023-08-06T08:00:29;0.90;;;0.90;;
21438;SDS011;10880;50.302;18.736;2023-08-06T08:02:56;0.80;;;0.80;;
21438;SDS011;10880;50.302;18.736;2023-08-06T08:05:23;0.80;;;0.80;;
21438;SDS011;10880;50.302;18.736;2023-08-06T08:07:49;0.80;;;0.80;;
21438;SDS011;10880;50.302;18.736;2023-08-06T08:10:21;0.80;;;0.80;;
21438;SDS011;10880;50.302;18.736;2023-08-06T08:12:47;0.90;;;0.90;;
21438;SDS011;10880;50.302;18.736;2023-08-06T08:15:14;0.90;;;0.90;;
21438;SDS011;10880;50.302;18.736;2023-08-06T08:17:40;0.70;;;0.70;;
21438;SDS011;10880;50.302;18.736;2023-08-06T08:20:07;0.80;;;0.80;;
21438;SDS011;10880;50.302;18.736;2023-08-06T08:22:34;0.80;;;0.80;;
21438;SDS011;10880;50.302;18.736;2023-08-06T08:25:02;0.83;;;0.83;;
21438;SDS011;10880;50.302;18.736;2023-08-06T08:27:29;0.80;;;0.80;;
21438;SDS011;10880;50.302;18.736;2023-08-06T08:29:57;0.70;;;0.70;;
21438;SDS011;10880;50.302;18.736;2023-08-06T08:32:25;0.80;;;0.80;;
21438;SDS011;10880;50.302;18.736;2023-08-06T08:34:54;0.87;;;0.87;;
21438;SDS011;10880;50.302;18.736;2023-08-06T08:37:20;0.90;;;0.90;;
21438;SDS011;10880;50.302;18.736;2023-08-06T08:39:47;0.90;;;0.90;;
21438;SDS011;10880;50.302;18.736;2023-08-06T08:42:14;0.90;;;0.90;;
21438;SDS011;10880;50.302;18.736;2023-08-06T08:44:44;0.90;;;0.90;;
21438;SDS011;10880;50.302;18.736;2023-08-06T08:47:11;0.80;;;0.80;;
21438;SDS011;10880;50.302;18.736;2023-08-06T08:49:38;0.80;;;0.80;;
21438;SDS011;10880;50.302;18.736;2023-08-06T08:52:06;0.80;;;0.80;;
21438;SDS011;10880;50.302;18.736;2023-08-06T08:54:37;0.80;;;0.80;;
21438;SDS011;10880;50.302;18.736;2023-08-06T08:57:05;0.90;;;0.90;;
21438;SDS011;10880;50.302;18.736;2023-08-06T08:59:33;0.90;;;0.90;;
21438;SDS011;10880;50.302;18.736;2023-08-06T09:02:02;0.80;;;0.80;;
21438;SDS011;10880;50.302;18.736;2023-08-06T09:04:31;0.80;;;0.80;;
21438;SDS011;10880;50.302;18.736;2023-08-06T09:06:58;0.87;;;0.87;;
21438;SDS011;10880;50.302;18.736;2023-08-06T09:09:26;0.93;;;0.93;;
21438;SDS011;10880;50.302;18.736;2023-08-06T09:12:00;0.90;;;0.90;;
21438;SDS011;10880;50.302;18.736;2023-08-06T09:14:30;0.90;;;0.90;;
21438;SDS011;10880;50.302;18.736;2023-08-06T09:16:56;0.80;;;0.80;;
21438;SDS011;10880;50.302;18.736;2023-08-06T09:19:23;0.90;;;0.90;;
21438;SDS011;10880;50.302;18.736;2023-08-06T09:21:53;0.80;;;0.80;;
21438;SDS011;10880;50.302;18.736;2023-08-06T09:24:21;0.80;;;0.80;;
21438;SDS011;10880;50.302;18.736;2023-08-06T09:26:48;0.80;;;0.80;;
21438;SDS011;10880;50.302;18.736;2023-08-06T09:29:15;0.90;;;0.90;;
21438;SDS011;10880;50.302;18.736;2023-08-06T09:31:42;0.90;;;0.90;;
21438;SDS011;10880;50.302;18.736;2023-08-06T09:34:14;0.80;;;0.80;;
21438;SDS011;10880;50.302;18.736;2023-08-06T09:36:46;0.80;;;0.80;;
21438;SDS011;10880;50.302;18.736;2023-08-06T09:39:18;0.70;;;0.70;;
21438;SDS011;10880;50.302;18.736;2023-08-06T09:41:45;0.90;;;0.90;;
21438;SDS011;10880;50.302;18.736;2023-08-06T09:44:20;0.80;;;0.80;;
21438;SDS011;10880;50.302;18.736;2023-08-06T09:49:18;0.90;;;0.90;;
21438;SDS011;10880;50.302;18.736;2023-08-06T09:51:45;0.80;;;0.80;;
21438;SDS011;10880;50.302;18.736;2023-08-06T09:54:17;0.90;;;0.90;;
21438;SDS011;10880;50.302;18.736;2023-08-06T09:56:45;0.90;;;0.90;;
21438;SDS011;10880;50.302;18.736;2023-08-06T09:59:13;0.80;;;0.80;;
21438;SDS011;10880;50.302;18.736;2023-08-06T10:01:41;0.80;;;0.80;;
21438;SDS011;10880;50.302;18.736;2023-08-06T10:04:08;0.87;;;0.87;;
21438;SDS011;10880;50.302;18.736;2023-08-06T10:06:36;0.80;;;0.80;;
21438;SDS011;10880;50.302;18.736;2023-08-06T10:09:04;0.80;;;0.80;;
21438;SDS011;10880;50.302;18.736;2023-08-06T10:11:31;1.00;;;1.00;;
21438;SDS011;10880;50.302;18.736;2023-08-06T10:14:06;0.90;;;0.90;;
21438;SDS011;10880;50.302;18.736;2023-08-06T10:16:54;0.90;;;0.90;;
21438;SDS011;10880;50.302;18.736;2023-08-06T10:19:23;0.80;;;0.80;;
21438;SDS011;10880;50.302;18.736;2023-08-06T10:27:33;1.00;;;1.00;;
21438;SDS011;10880;50.302;18.736;2023-08-06T10:30:20;0.90;;;0.90;;
21438;SDS011;10880;50.302;18.736;2023-08-06T10:32:51;0.80;;;0.80;;
21438;SDS011;10880;50.302;18.736;2023-08-06T10:38:12;0.90;;;0.90;;
21438;SDS011;10880;50.302;18.736;2023-08-06T10:43:33;0.80;;;0.80;;
21438;SDS011;10880;50.302;18.736;2023-08-06T10:46:01;0.80;;;0.80;;
21438;SDS011;10880;50.302;18.736;2023-08-06T10:48:41;0.90;;;0.90;;
21438;SDS011;10880;50.302;18.736;2023-08-06T10:51:12;0.90;;;0.90;;
21438;SDS011;10880;50.302;18.736;2023-08-06T10:53:43;0.90;;;0.90;;
21438;SDS011;10880;50.302;18.736;2023-08-06T10:56:15;0.90;;;0.90;;
21438;SDS011;10880;50.302;18.736;2023-08-06T10:58:44;0.90;;;0.90;;
21438;SDS011;10880;50.302;18.736;2023-08-06T11:01:11;0.80;;;0.80;;
21438;SDS011;10880;50.302;18.736;2023-08-06T11:03:41;0.90;;;0.90;;
21438;SDS011;10880;50.302;18.736;2023-08-06T11:06:19;0.90;;;0.90;;
21438;SDS011;10880;50.302;18.736;2023-08-06T11:08:47;0.83;;;0.83;;
21438;SDS011;10880;50.302;18.736;2023-08-06T11:11:16;0.80;;;0.80;;
21438;SDS011;10880;50.302;18.736;2023-08-06T11:13:45;0.80;;;0.80;;
21438;SDS011;10880;50.302;18.736;2023-08-06T11:16:17;1.00;;;1.00;;
21438;SDS011;10880;50.302;18.736;2023-08-06T11:18:45;1.00;;;1.00;;
21438;SDS011;10880;50.302;18.736;2023-08-06T11:21:13;0.90;;;0.90;;
21438;SDS011;10880;50.302;18.736;2023-08-06T11:23:40;0.90;;;0.90;;
21438;SDS011;10880;50.302;18.736;2023-08-06T11:26:08;1.00;;;1.00;;
21438;SDS011;10880;50.302;18.736;2023-08-06T11:29:30;1.00;;;1.00;;
21438;SDS011;10880;50.302;18.736;2023-08-06T11:32:04;0.90;;;0.90;;
21438;SDS011;10880;50.302;18.736;2023-08-06T11:34:31;0.90;;;0.90;;
21438;SDS011;10880;50.302;18.736;2023-08-06T11:36:58;0.93;;;0.93;;
21438;SDS011;10880;50.302;18.736;2023-08-06T11:39:25;0.90;;;0.90;;
21438;SDS011;10880;50.302;18.736;2023-08-06T11:41:51;0.80;;;0.80;;
21438;SDS011;10880;50.302;18.736;2023-08-06T11:44:19;0.90;;;0.90;;
21438;SDS011;10880;50.302;18.736;2023-08-06T11:46:53;1.00;;;1.00;;
21438;SDS011;10880;50.302;18.736;2023-08-06T11:50:07;0.97;;;0.97;;
21438;SDS011;10880;50.302;18.736;2023-08-06T11:52:13;0.80;;;0.80;;
21438;SDS011;10880;50.302;18.736;2023-08-06T11:54:42;0.87;;;0.87;;
21438;SDS011;10880;50.302;18.736;2023-08-06T11:57:08;1.00;;;1.00;;
21438;SDS011;10880;50.302;18.736;2023-08-06T11:59:36;0.90;;;0.90;;
21438;SDS011;10880;50.302;18.736;2023-08-06T12:02:05;1.00;;;1.00;;
21438;SDS011;10880;50.302;18.736;2023-08-06T12:04:32;0.80;;;0.80;;
21438;SDS011;10880;50.302;18.736;2023-08-06T12:07:07;0.90;;;0.90;;
21438;SDS011;10880;50.302;18.736;2023-08-06T12:09:34;1.00;;;1.00;;
21438;SDS011;10880;50.302;18.736;2023-08-06T12:12:01;0.90;;;0.90;;
21438;SDS011;10880;50.302;18.736;2023-08-06T12:14:29;0.90;;;0.90;;
21438;SDS011;10880;50.302;18.736;2023-08-06T12:16:56;0.90;;;0.90;;
21438;SDS011;10880;50.302;18.736;2023-08-06T12:19:22;1.00;;;1.00;;
21438;SDS011;10880;50.302;18.736;2023-08-06T12:21:49;1.03;;;1.03;;
21438;SDS011;10880;50.302;18.736;2023-08-06T12:24:16;0.90;;;0.90;;
21438;SDS011;10880;50.302;18.736;2023-08-06T12:26:44;1.00;;;1.00;;
21438;SDS011;10880;50.302;18.736;2023-08-06T12:29:13;1.10;;;1.10;;
21438;SDS011;10880;50.302;18.736;2023-08-06T12:31:40;0.90;;;0.90;;
21438;SDS011;10880;50.302;18.736;2023-08-06T12:34:07;0.90;;;0.90;;
21438;SDS011;10880;50.302;18.736;2023-08-06T12:36:34;1.00;;;1.00;;
21438;SDS011;10880;50.302;18.736;2023-08-06T12:39:00;0.93;;;0.93;;
21438;SDS011;10880;50.302;18.736;2023-08-06T12:41:30;1.00;;;1.00;;
21438;SDS011;10880;50.302;18.736;2023-08-06T12:43:57;1.00;;;1.00;;
21438;SDS011;10880;50.302;18.736;2023-08-06T12:46:23;0.93;;;0.93;;
21438;SDS011;10880;50.302;18.736;2023-08-06T12:48:50;0.90;;;0.90;;
21438;SDS011;10880;50.302;18.736;2023-08-06T12:51:18;0.90;;;0.90;;
21438;SDS011;10880;50.302;18.736;2023-08-06T12:53:45;0.93;;;0.93;;
21438;SDS011;10880;50.302;18.736;2023-08-06T12:56:11;1.00;;;1.00;;
21438;SDS011;10880;50.302;18.736;2023-08-06T12:58:38;1.00;;;1.00;;
21438;SDS011;10880;50.302;18.736;2023-08-06T13:01:05;0.80;;;0.80;;
21438;SDS011;10880;50.302;18.736;2023-08-06T13:03:32;0.90;;;0.90;;
21438;SDS011;10880;50.302;18.736;2023-08-06T13:05:59;0.80;;;0.80;;
21438;SDS011;10880;50.302;18.736;2023-08-06T13:08:26;0.90;;;0.90;;
21438;SDS011;10880;50.302;18.736;2023-08-06T13:10:53;0.90;;;0.90;;
21438;SDS011;10880;50.302;18.736;2023-08-06T13:13:20;0.90;;;0.90;;
21438;SDS011;10880;50.302;18.736;2023-08-06T13:15:47;0.90;;;0.90;;
21438;SDS011;10880;50.302;18.736;2023-08-06T13:18:13;0.90;;;0.90;;
21438;SDS011;10880;50.302;18.736;2023-08-06T13:20:40;0.90;;;0.90;;
21438;SDS011;10880;50.302;18.736;2023-08-06T13:23:07;1.00;;;1.00;;
21438;SDS011;10880;50.302;18.736;2023-08-06T13:25:34;0.90;;;0.90;;
21438;SDS011;10880;50.302;18.736;2023-08-06T13:28:03;1.07;;;1.00;;
21438;SDS011;10880;50.302;18.736;2023-08-06T13:30:29;0.90;;;0.90;;
21438;SDS011;10880;50.302;18.736;2023-08-06T13:32:56;0.87;;;0.87;;
21438;SDS011;10880;50.302;18.736;2023-08-06T13:35:24;0.90;;;0.90;;
21438;SDS011;10880;50.302;18.736;2023-08-06T13:37:50;1.10;;;1.10;;
21438;SDS011;10880;50.302;18.736;2023-08-06T13:40:17;1.00;;;1.00;;
21438;SDS011;10880;50.302;18.736;2023-08-06T13:42:43;0.90;;;0.90;;
21438;SDS011;10880;50.302;18.736;2023-08-06T13:45:10;0.90;;;0.90;;
21438;SDS011;10880;50.302;18.736;2023-08-06T13:47:37;0.90;;;0.90;;
21438;SDS011;10880;50.302;18.736;2023-08-06T13:50:04;1.00;;;1.00;;
21438;SDS011;10880;50.302;18.736;2023-08-06T13:52:31;1.00;;;1.00;;
21438;SDS011;10880;50.302;18.736;2023-08-06T13:54:58;0.90;;;0.90;;
21438;SDS011;10880;50.302;18.736;2023-08-06T13:57:25;0.90;;;0.90;;
21438;SDS011;10880;50.302;18.736;2023-08-06T13:59:52;0.90;;;0.90;;
21438;SDS011;10880;50.302;18.736;2023-08-06T14:02:18;1.00;;;1.00;;
21438;SDS011;10880;50.302;18.736;2023-08-06T14:04:45;0.90;;;0.90;;
21438;SDS011;10880;50.302;18.736;2023-08-06T14:07:12;0.90;;;0.90;;
21438;SDS011;10880;50.302;18.736;2023-08-06T14:09:38;0.90;;;0.90;;
21438;SDS011;10880;50.302;18.736;2023-08-06T14:12:06;0.90;;;0.90;;
21438;SDS011;10880;50.302;18.736;2023-08-06T14:14:33;0.90;;;0.90;;
21438;SDS011;10880;50.302;18.736;2023-08-06T14:17:00;0.80;;;0.80;;
21438;SDS011;10880;50.302;18.736;2023-08-06T14:19:26;0.90;;;0.90;;
21438;SDS011;10880;50.302;18.736;2023-08-06T14:21:54;1.00;;;1.00;;
21438;SDS011;10880;50.302;18.736;2023-08-06T14:24:21;1.00;;;1.00;;
21438;SDS011;10880;50.302;18.736;2023-08-06T14:26:47;0.87;;;0.87;;
21438;SDS011;10880;50.302;18.736;2023-08-06T14:29:16;0.90;;;0.90;;
21438;SDS011;10880;50.302;18.736;2023-08-06T14:31:44;0.90;;;0.90;;
21438;SDS011;10880;50.302;18.736;2023-08-06T14:34:16;0.90;;;0.90;;
21438;SDS011;10880;50.302;18.736;2023-08-06T14:36:42;0.90;;;0.90;;
21438;SDS011;10880;50.302;18.736;2023-08-06T14:39:09;0.93;;;0.93;;
21438;SDS011;10880;50.302;18.736;2023-08-06T14:41:36;0.90;;;0.90;;
21438;SDS011;10880;50.302;18.736;2023-08-06T14:44:03;0.90;;;0.90;;
21438;SDS011;10880;50.302;18.736;2023-08-06T14:46:29;0.90;;;0.90;;
21438;SDS011;10880;50.302;18.736;2023-08-06T14:48:56;0.90;;;0.90;;
21438;SDS011;10880;50.302;18.736;2023-08-06T14:51:23;1.03;;;1.03;;
21438;SDS011;10880;50.302;18.736;2023-08-06T14:53:50;0.90;;;0.90;;
21438;SDS011;10880;50.302;18.736;2023-08-06T14:56:17;0.90;;;0.90;;
21438;SDS011;10880;50.302;18.736;2023-08-06T14:58:44;0.90;;;0.90;;
21438;SDS011;10880;50.302;18.736;2023-08-06T15:01:12;1.00;;;1.00;;
21438;SDS011;10880;50.302;18.736;2023-08-06T15:03:38;0.90;;;0.90;;
21438;SDS011;10880;50.302;18.736;2023-08-06T15:06:05;1.00;;;1.00;;
21438;SDS011;10880;50.302;18.736;2023-08-06T15:08:31;1.00;;;1.00;;
21438;SDS011;10880;50.302;18.736;2023-08-06T15:10:58;1.00;;;1.00;;
21438;SDS011;10880;50.302;18.736;2023-08-06T15:13:28;0.90;;;0.90;;
21438;SDS011;10880;50.302;18.736;2023-08-06T15:15:55;0.90;;;0.90;;
21438;SDS011;10880;50.302;18.736;2023-08-06T15:18:22;0.90;;;0.90;;
21438;SDS011;10880;50.302;18.736;2023-08-06T15:20:49;1.00;;;1.00;;
21438;SDS011;10880;50.302;18.736;2023-08-06T15:23:15;1.10;;;1.10;;
21438;SDS011;10880;50.302;18.736;2023-08-06T15:25:42;0.90;;;0.90;;
21438;SDS011;10880;50.302;18.736;2023-08-06T15:28:09;1.10;;;1.10;;
21438;SDS011;10880;50.302;18.736;2023-08-06T15:30:35;1.00;;;1.00;;
21438;SDS011;10880;50.302;18.736;2023-08-06T15:33:02;1.00;;;1.00;;
21438;SDS011;10880;50.302;18.736;2023-08-06T15:35:29;1.10;;;1.00;;
21438;SDS011;10880;50.302;18.736;2023-08-06T15:37:56;1.00;;;1.00;;
21438;SDS011;10880;50.302;18.736;2023-08-06T15:40:23;0.90;;;0.90;;
21438;SDS011;10880;50.302;18.736;2023-08-06T15:42:49;0.90;;;0.90;;
21438;SDS011;10880;50.302;18.736;2023-08-06T15:45:16;0.90;;;0.90;;
21438;SDS011;10880;50.302;18.736;2023-08-06T15:47:43;1.00;;;1.00;;
21438;SDS011;10880;50.302;18.736;2023-08-06T15:53:30;0.97;;;0.97;;
21438;SDS011;10880;50.302;18.736;2023-08-06T15:55:58;1.00;;;1.00;;
21438;SDS011;10880;50.302;18.736;2023-08-06T15:58:25;1.00;;;1.00;;
21438;SDS011;10880;50.302;18.736;2023-08-06T16:00:52;0.93;;;0.93;;
21438;SDS011;10880;50.302;18.736;2023-08-06T16:03:19;1.00;;;1.00;;
21438;SDS011;10880;50.302;18.736;2023-08-06T16:05:45;0.90;;;0.90;;
21438;SDS011;10880;50.302;18.736;2023-08-06T16:08:12;1.00;;;1.00;;
21438;SDS011;10880;50.302;18.736;2023-08-06T16:10:39;0.80;;;0.80;;
21438;SDS011;10880;50.302;18.736;2023-08-06T16:13:09;0.90;;;0.90;;
21438;SDS011;10880;50.302;18.736;2023-08-06T16:15:37;1.00;;;1.00;;
21438;SDS011;10880;50.302;18.736;2023-08-06T16:18:03;0.90;;;0.90;;
21438;SDS011;10880;50.302;18.736;2023-08-06T16:20:30;0.90;;;0.90;;
21438;SDS011;10880;50.302;18.736;2023-08-06T16:22:57;0.90;;;0.90;;
21438;SDS011;10880;50.302;18.736;2023-08-06T16:25:24;0.90;;;0.90;;
21438;SDS011;10880;50.302;18.736;2023-08-06T16:27:51;0.90;;;0.90;;
21438;SDS011;10880;50.302;18.736;2023-08-06T16:30:18;1.00;;;1.00;;
21438;SDS011;10880;50.302;18.736;2023-08-06T16:32:45;0.90;;;0.90;;
21438;SDS011;10880;50.302;18.736;2023-08-06T16:35:13;0.80;;;0.80;;
21438;SDS011;10880;50.302;18.736;2023-08-06T16:37:41;1.43;;;1.00;;
21438;SDS011;10880;50.302;18.736;2023-08-06T16:40:10;0.90;;;0.90;;
21438;SDS011;10880;50.302;18.736;2023-08-06T16:42:37;0.90;;;0.90;;
21438;SDS011;10880;50.302;18.736;2023-08-06T16:45:03;1.00;;;1.00;;
21438;SDS011;10880;50.302;18.736;2023-08-06T16:47:30;1.00;;;1.00;;
21438;SDS011;10880;50.302;18.736;2023-08-06T16:49:57;0.87;;;0.87;;
21438;SDS011;10880;50.302;18.736;2023-08-06T16:52:23;0.90;;;0.90;;
21438;SDS011;10880;50.302;18.736;2023-08-06T16:54:51;0.90;;;0.90;;
21438;SDS011;10880;50.302;18.736;2023-08-06T16:57:17;1.00;;;1.00;;
21438;SDS011;10880;50.302;18.736;2023-08-06T16:59:44;0.90;;;0.90;;
21438;SDS011;10880;50.302;18.736;2023-08-06T17:02:11;0.90;;;0.90;;
21438;SDS011;10880;50.302;18.736;2023-08-06T17:04:38;0.90;;;0.90;;
21438;SDS011;10880;50.302;18.736;2023-08-06T17:07:05;0.90;;;0.90;;
21438;SDS011;10880;50.302;18.736;2023-08-06T17:09:35;0.90;;;0.90;;
21438;SDS011;10880;50.302;18.736;2023-08-06T17:12:04;1.00;;;1.00;;
21438;SDS011;10880;50.302;18.736;2023-08-06T17:14:31;0.90;;;0.90;;
21438;SDS011;10880;50.302;18.736;2023-08-06T17:17:02;1.00;;;1.00;;
21438;SDS011;10880;50.302;18.736;2023-08-06T17:19:28;1.00;;;1.00;;
21438;SDS011;10880;50.302;18.736;2023-08-06T17:21:55;1.00;;;1.00;;
21438;SDS011;10880;50.302;18.736;2023-08-06T17:24:22;1.00;;;1.00;;
21438;SDS011;10880;50.302;18.736;2023-08-06T17:26:49;0.90;;;0.90;;
21438;SDS011;10880;50.302;18.736;2023-08-06T17:29:17;1.10;;;1.10;;
21438;SDS011;10880;50.302;18.736;2023-08-06T17:31:44;1.00;;;1.00;;
21438;SDS011;10880;50.302;18.736;2023-08-06T17:34:12;1.10;;;1.10;;
21438;SDS011;10880;50.302;18.736;2023-08-06T17:36:44;1.00;;;1.00;;
21438;SDS011;10880;50.302;18.736;2023-08-06T17:39:13;1.10;;;1.10;;
21438;SDS011;10880;50.302;18.736;2023-08-06T17:41:39;0.90;;;0.90;;
21438;SDS011;10880;50.302;18.736;2023-08-06T17:44:06;1.00;;;1.00;;
21438;SDS011;10880;50.302;18.736;2023-08-06T17:46:33;1.00;;;1.00;;
21438;SDS011;10880;50.302;18.736;2023-08-06T17:48:59;0.90;;;0.90;;
21438;SDS011;10880;50.302;18.736;2023-08-06T17:51:26;1.00;;;1.00;;
21438;SDS011;10880;50.302;18.736;2023-08-06T17:53:53;0.90;;;0.90;;
21438;SDS011;10880;50.302;18.736;2023-08-06T17:56:20;0.90;;;0.90;;
21438;SDS011;10880;50.302;18.736;2023-08-06T17:58:49;0.90;;;0.90;;
21438;SDS011;10880;50.302;18.736;2023-08-06T18:01:15;1.00;;;1.00;;
21438;SDS011;10880;50.302;18.736;2023-08-06T18:03:43;0.90;;;0.90;;
21438;SDS011;10880;50.302;18.736;2023-08-06T18:06:11;1.10;;;1.10;;
21438;SDS011;10880;50.302;18.736;2023-08-06T18:08:40;1.00;;;1.00;;
21438;SDS011;10880;50.302;18.736;2023-08-06T18:11:07;0.87;;;0.87;;
21438;SDS011;10880;50.302;18.736;2023-08-06T18:13:34;1.00;;;1.00;;
21438;SDS011;10880;50.302;18.736;2023-08-06T18:16:00;0.90;;;0.90;;
21438;SDS011;10880;50.302;18.736;2023-08-06T18:18:28;0.90;;;0.90;;
21438;SDS011;10880;50.302;18.736;2023-08-06T18:20:55;0.90;;;0.90;;
21438;SDS011;10880;50.302;18.736;2023-08-06T18:23:21;1.00;;;1.00;;
21438;SDS011;10880;50.302;18.736;2023-08-06T18:25:49;0.90;;;0.90;;
21438;SDS011;10880;50.302;18.736;2023-08-06T18:28:16;1.10;;;1.10;;
21438;SDS011;10880;50.302;18.736;2023-08-06T18:30:42;1.00;;;1.00;;
21438;SDS011;10880;50.302;18.736;2023-08-06T18:33:10;1.00;;;1.00;;
21438;SDS011;10880;50.302;18.736;2023-08-06T18:35:39;1.00;;;1.00;;
21438;SDS011;10880;50.302;18.736;2023-08-06T18:38:09;0.90;;;0.90;;
21438;SDS011;10880;50.302;18.736;2023-08-06T18:40:35;1.00;;;1.00;;
21438;SDS011;10880;50.302;18.736;2023-08-06T18:43:02;0.90;;;0.90;;
21438;SDS011;10880;50.302;18.736;2023-08-06T18:45:29;1.00;;;1.00;;
21438;SDS011;10880;50.302;18.736;2023-08-06T18:48:02;0.90;;;0.90;;
21438;SDS011;10880;50.302;18.736;2023-08-06T18:50:28;1.00;;;1.00;;
21438;SDS011;10880;50.302;18.736;2023-08-06T18:53:01;0.90;;;0.90;;
21438;SDS011;10880;50.302;18.736;2023-08-06T18:55:34;1.10;;;1.10;;
21438;SDS011;10880;50.302;18.736;2023-08-06T18:58:20;1.10;;;1.10;;
21438;SDS011;10880;50.302;18.736;2023-08-06T19:00:50;1.10;;;1.10;;
21438;SDS011;10880;50.302;18.736;2023-08-06T19:03:48;1.20;;;1.10;;
21438;SDS011;10880;50.302;18.736;2023-08-06T19:06:15;0.90;;;0.90;;
21438;SDS011;10880;50.302;18.736;2023-08-06T19:08:42;1.00;;;1.00;;
21438;SDS011;10880;50.302;18.736;2023-08-06T19:11:12;1.17;;;1.17;;
21438;SDS011;10880;50.302;18.736;2023-08-06T19:13:39;1.20;;;0.90;;
21438;SDS011;10880;50.302;18.736;2023-08-06T19:16:05;1.10;;;1.00;;
21438;SDS011;10880;50.302;18.736;2023-08-06T19:18:32;0.90;;;0.90;;
21438;SDS011;10880;50.302;18.736;2023-08-06T19:21:00;1.00;;;1.00;;
21438;SDS011;10880;50.302;18.736;2023-08-06T19:23:27;1.00;;;1.00;;
21438;SDS011;10880;50.302;18.736;2023-08-06T19:25:54;1.00;;;1.00;;
21438;SDS011;10880;50.302;18.736;2023-08-06T19:28:21;1.00;;;1.00;;
21438;SDS011;10880;50.302;18.736;2023-08-06T19:30:48;1.10;;;1.10;;
21438;SDS011;10880;50.302;18.736;2023-08-06T19:33:15;1.00;;;1.00;;
21438;SDS011;10880;50.302;18.736;2023-08-06T19:35:47;1.10;;;1.10;;
21438;SDS011;10880;50.302;18.736;2023-08-06T19:38:18;1.03;;;1.03;;
21438;SDS011;10880;50.302;18.736;2023-08-06T19:40:49;1.10;;;1.10;;
21438;SDS011;10880;50.302;18.736;2023-08-06T19:43:18;1.00;;;1.00;;
21438;SDS011;10880;50.302;18.736;2023-08-06T19:45:48;1.00;;;1.00;;
21438;SDS011;10880;50.302;18.736;2023-08-06T19:48:15;1.00;;;1.00;;
21438;SDS011;10880;50.302;18.736;2023-08-06T19:50:42;1.10;;;1.10;;
21438;SDS011;10880;50.302;18.736;2023-08-06T19:53:08;1.10;;;1.10;;
21438;SDS011;10880;50.302;18.736;2023-08-06T19:55:38;1.13;;;1.10;;
21438;SDS011;10880;50.302;18.736;2023-08-06T19:58:08;1.10;;;1.10;;
21438;SDS011;10880;50.302;18.736;2023-08-06T20:00:35;0.97;;;0.97;;
21438;SDS011;10880;50.302;18.736;2023-08-06T20:03:02;1.10;;;1.10;;
21438;SDS011;10880;50.302;18.736;2023-08-06T20:05:29;1.10;;;1.10;;
21438;SDS011;10880;50.302;18.736;2023-08-06T20:07:55;1.20;;;1.20;;
21438;SDS011;10880;50.302;18.736;2023-08-06T20:10:22;1.30;;;1.20;;
21438;SDS011;10880;50.302;18.736;2023-08-06T20:12:49;1.10;;;1.10;;
21438;SDS011;10880;50.302;18.736;2023-08-06T20:15:16;2.20;;;1.20;;
21438;SDS011;10880;50.302;18.736;2023-08-06T20:17:42;1.10;;;1.10;;
21438;SDS011;10880;50.302;18.736;2023-08-06T20:20:09;1.00;;;1.00;;
21438;SDS011;10880;50.302;18.736;2023-08-06T20:22:36;1.30;;;1.20;;
21438;SDS011;10880;50.302;18.736;2023-08-06T20:25:03;1.00;;;1.00;;
21438;SDS011;10880;50.302;18.736;2023-08-06T20:27:33;1.00;;;1.00;;
21438;SDS011;10880;50.302;18.736;2023-08-06T20:30:00;1.00;;;1.00;;
21438;SDS011;10880;50.302;18.736;2023-08-06T20:32:28;1.00;;;1.00;;
21438;SDS011;10880;50.302;18.736;2023-08-06T20:34:56;1.07;;;1.07;;
21438;SDS011;10880;50.302;18.736;2023-08-06T20:37:23;1.20;;;1.20;;
21438;SDS011;10880;50.302;18.736;2023-08-06T20:39:49;1.10;;;1.10;;
21438;SDS011;10880;50.302;18.736;2023-08-06T20:42:16;1.00;;;1.00;;
21438;SDS011;10880;50.302;18.736;2023-08-06T20:44:43;1.27;;;1.10;;
21438;SDS011;10880;50.302;18.736;2023-08-06T20:47:11;1.07;;;1.07;;
21438;SDS011;10880;50.302;18.736;2023-08-06T20:49:39;1.10;;;1.10;;
21438;SDS011;10880;50.302;18.736;2023-08-06T20:52:06;1.00;;;1.00;;
21438;SDS011;10880;50.302;18.736;2023-08-06T20:54:33;1.00;;;1.00;;